createdAt,value
2018-07-19T00:00:38.081Z,18.21
2018-07-19T00:03:07.380Z,18.55
2018-07-19T00:05:36.625Z,18.02
2018-07-19T00:08:06.116Z,18.19
2018-07-19T00:10:35.527Z,17.86
2018-07-19T00:13:04.837Z,17.90
2018-07-19T00:15:34.069Z,17.78
2018-07-19T00:18:03.284Z,17.96
2018-07-19T00:20:32.545Z,17.59
2018-07-19T00:23:01.776Z,17.72
2018-07-19T00:25:30.977Z,17.64
2018-07-19T00:28:00.164Z,17.90
2018-07-19T00:30:29.378Z,17.99
2018-07-19T00:32:58.686Z,17.94
2018-07-19T00:35:27.916Z,18.03
2018-07-19T00:37:57.183Z,17.79
2018-07-19T00:40:26.416Z,17.81
2018-07-19T00:42:55.580Z,17.71
2018-07-19T00:45:24.832Z,17.77
2018-07-19T00:47:54.051Z,17.51
2018-07-19T00:50:23.249Z,17.40
2018-07-19T00:52:52.509Z,17.02
2018-07-19T00:55:21.713Z,17.51
2018-07-19T00:57:50.896Z,17.70
2018-07-19T01:00:20.316Z,17.52
2018-07-19T01:02:49.514Z,17.83
2018-07-19T01:05:18.710Z,17.50
2018-07-19T01:07:47.976Z,17.16
2018-07-19T01:10:17.173Z,17.40
2018-07-19T01:12:46.404Z,17.27
2018-07-19T01:15:15.572Z,17.08
2018-07-19T01:17:44.776Z,17.26
2018-07-19T01:20:13.961Z,17.40
2018-07-19T01:22:43.145Z,17.45
2018-07-19T01:25:12.333Z,17.31
2018-07-19T01:27:41.585Z,17.42
2018-07-19T01:30:10.784Z,16.90
2018-07-19T01:32:39.979Z,16.97
2018-07-19T01:35:09.188Z,16.82
2018-07-19T01:37:38.402Z,17.07
2018-07-19T01:40:07.656Z,17.17
2018-07-19T01:42:41.714Z,17.46
2018-07-19T01:45:11.501Z,17.21
2018-07-19T01:47:40.982Z,16.65
2018-07-19T01:50:10.992Z,16.96
2018-07-19T01:52:40.205Z,16.95
2018-07-19T01:55:09.626Z,16.91
2018-07-19T01:57:38.856Z,17.03
2018-07-19T02:00:08.125Z,16.93
2018-07-19T02:02:37.397Z,17.02
2018-07-19T02:05:07.161Z,17.12
2018-07-19T02:07:36.347Z,16.83
2018-07-19T02:10:05.686Z,16.63
2018-07-19T02:12:34.876Z,16.44
2018-07-19T02:15:04.093Z,16.69
2018-07-19T02:17:33.257Z,16.92
2018-07-19T02:20:02.509Z,16.83
2018-07-19T02:22:31.716Z,16.86
2018-07-19T02:25:00.922Z,16.79
2018-07-19T02:27:30.086Z,16.38
2018-07-19T02:29:59.288Z,16.62
2018-07-19T02:32:28.500Z,16.51
2018-07-19T02:34:57.656Z,16.52
2018-07-19T02:37:26.863Z,16.89
2018-07-19T02:39:56.022Z,16.54
2018-07-19T02:42:25.207Z,16.84
2018-07-19T02:44:54.444Z,16.69
2018-07-19T02:47:23.661Z,16.50
2018-07-19T02:49:52.823Z,16.61
2018-07-19T02:52:22.132Z,16.71
2018-07-19T02:54:51.313Z,16.50
2018-07-19T02:57:20.474Z,16.39
2018-07-19T02:59:49.678Z,16.41
2018-07-19T03:02:18.843Z,16.42
2018-07-19T03:04:48.005Z,16.53
2018-07-19T03:07:17.173Z,16.85
2018-07-19T03:09:46.349Z,16.58
2018-07-19T03:12:15.558Z,16.52
2018-07-19T03:14:44.800Z,16.61
2018-07-19T03:17:14.033Z,16.22
2018-07-19T03:19:43.200Z,16.29
2018-07-19T03:22:12.405Z,16.28
2018-07-19T03:24:41.621Z,16.14
2018-07-19T03:27:10.928Z,16.48
2018-07-19T03:29:40.142Z,16.39
2018-07-19T03:32:09.420Z,16.36
2018-07-19T03:34:38.805Z,16.10
2018-07-19T03:37:08.151Z,16.33
2018-07-19T03:39:37.525Z,16.30
2018-07-19T03:42:06.704Z,16.01
2018-07-19T03:44:35.872Z,15.92
2018-07-19T03:47:05.112Z,15.81
2018-07-19T03:49:34.307Z,15.99
2018-07-19T03:52:03.655Z,15.95
2018-07-19T03:54:32.976Z,15.95
2018-07-19T03:57:02.384Z,16.14
2018-07-19T03:59:31.796Z,16.41
2018-07-19T04:02:01.182Z,16.31
2018-07-19T04:04:30.349Z,16.56
2018-07-19T04:06:59.605Z,16.32
2018-07-19T04:09:28.813Z,16.40
2018-07-19T04:11:58.091Z,16.20
2018-07-19T04:14:27.448Z,16.24
2018-07-19T04:16:56.657Z,16.27
2018-07-19T04:19:25.842Z,16.48
2018-07-19T04:21:55.096Z,16.46
2018-07-19T04:24:24.309Z,16.54
2018-07-19T04:26:53.503Z,16.53
2018-07-19T04:29:23.279Z,16.56
2018-07-19T04:31:52.512Z,16.65
2018-07-19T04:34:21.776Z,16.65
2018-07-19T04:36:50.976Z,16.87
2018-07-19T04:39:20.190Z,16.90
2018-07-19T04:41:49.424Z,17.01
2018-07-19T04:44:18.608Z,16.60
2018-07-19T04:46:47.836Z,16.97
2018-07-19T04:49:17.067Z,17.10
2018-07-19T04:51:46.246Z,17.32
2018-07-19T04:54:15.456Z,17.63
2018-07-19T04:56:44.649Z,17.07
2018-07-19T04:59:13.833Z,17.39
2018-07-19T05:01:43.064Z,17.80
2018-07-19T05:04:12.301Z,18.09
2018-07-19T05:06:41.531Z,17.70
2018-07-19T05:09:11.465Z,17.76
2018-07-19T05:11:40.752Z,18.35
2018-07-19T05:14:10.018Z,18.45
2018-07-19T05:16:39.128Z,18.19
2018-07-19T05:19:08.338Z,18.74
2018-07-19T05:21:37.540Z,18.81
2018-07-19T05:24:06.893Z,18.19
2018-07-19T05:26:36.084Z,18.66
2018-07-19T05:29:05.257Z,19.19
2018-07-19T05:31:34.549Z,19.92
2018-07-19T05:34:03.731Z,21.01
2018-07-19T05:36:32.930Z,21.61
2018-07-19T05:39:02.152Z,22.43
2018-07-19T05:41:31.344Z,22.61
2018-07-19T05:44:00.556Z,24.27
2018-07-19T05:46:29.780Z,24.49
2018-07-19T05:48:59.164Z,25.64
2018-07-19T05:51:28.400Z,25.16
2018-07-19T05:53:57.713Z,26.01
2018-07-19T05:56:26.884Z,25.92
2018-07-19T05:58:56.111Z,28.10
2018-07-19T06:01:25.483Z,27.24
2018-07-19T06:03:54.684Z,28.38
2018-07-19T06:06:23.897Z,29.16
2018-07-19T06:08:53.184Z,28.95
2018-07-19T06:11:22.422Z,28.57
2018-07-19T06:13:51.592Z,27.64
2018-07-19T06:16:20.765Z,29.34
2018-07-19T06:18:50.030Z,29.57
2018-07-19T06:21:19.228Z,31.27
2018-07-19T06:23:48.422Z,30.56
2018-07-19T06:26:17.668Z,31.67
2018-07-19T06:28:46.891Z,31.13
2018-07-19T06:31:16.101Z,32.06
2018-07-19T06:33:45.294Z,33.73
2018-07-19T06:36:14.492Z,32.54
2018-07-19T06:38:43.708Z,33.89
2018-07-19T06:41:12.932Z,32.60
2018-07-19T06:43:42.159Z,31.76
2018-07-19T06:46:11.391Z,32.32
2018-07-19T06:48:40.599Z,31.48
2018-07-19T06:51:09.872Z,33.13
2018-07-19T06:53:39.043Z,33.28
2018-07-19T06:56:08.266Z,32.60
2018-07-19T06:58:37.458Z,34.02
2018-07-19T07:01:06.848Z,34.81
2018-07-19T07:03:36.070Z,35.02
2018-07-19T07:06:05.669Z,33.32
2018-07-19T07:08:34.931Z,33.89
2018-07-19T07:11:04.260Z,33.62
2018-07-19T07:13:33.466Z,34.74
2018-07-19T07:16:02.757Z,35.15
2018-07-19T07:18:31.955Z,35.67
2018-07-19T07:21:01.210Z,35.23
2018-07-19T07:23:30.416Z,34.46
2018-07-19T07:25:59.705Z,33.34
2018-07-19T07:28:29.068Z,35.92
2018-07-19T07:30:58.304Z,36.45
2018-07-19T07:33:27.576Z,34.84
2018-07-19T07:35:56.895Z,36.18
2018-07-19T07:38:26.165Z,36.09
2018-07-19T07:40:55.447Z,35.14
2018-07-19T07:43:24.866Z,35.97
2018-07-19T07:45:54.061Z,37.33
2018-07-19T07:48:23.388Z,37.80
2018-07-19T07:50:52.856Z,36.20
2018-07-19T07:53:23.093Z,37.16
2018-07-19T07:55:52.526Z,36.70
2018-07-19T07:58:21.725Z,37.46
2018-07-19T08:00:51.118Z,36.46
2018-07-19T08:03:20.316Z,36.79
2018-07-19T08:05:49.532Z,37.46
2018-07-19T08:08:19.090Z,37.30
2018-07-19T08:10:48.404Z,37.43
2018-07-19T08:13:17.628Z,36.83
2018-07-19T08:15:46.939Z,36.22
2018-07-19T08:18:16.176Z,35.92
2018-07-19T08:20:45.549Z,34.59
2018-07-19T08:23:14.890Z,36.47
2018-07-19T08:25:44.105Z,36.67
2018-07-19T08:28:13.565Z,36.67
2018-07-19T08:30:42.804Z,37.59
2018-07-19T08:33:12.335Z,38.24
2018-07-19T08:35:41.624Z,36.47
2018-07-19T08:38:11.073Z,36.07
2018-07-19T08:40:40.357Z,36.71
2018-07-19T08:43:09.715Z,36.75
2018-07-19T08:45:38.924Z,35.99
2018-07-19T08:48:08.478Z,35.08
2018-07-19T08:50:37.747Z,37.97
2018-07-19T08:53:07.073Z,36.48
2018-07-19T08:55:36.316Z,37.39
2018-07-19T08:58:05.718Z,36.36
2018-07-19T09:00:34.988Z,36.75
2018-07-19T09:03:04.336Z,35.57
2018-07-19T09:05:33.672Z,37.49
2018-07-19T09:08:03.074Z,37.74
2018-07-19T09:10:32.292Z,38.57
2018-07-19T09:13:01.525Z,38.39
2018-07-19T09:15:30.913Z,37.30
2018-07-19T09:18:00.206Z,35.11
2018-07-19T09:24:10.865Z,35.90
2018-07-19T09:26:47.978Z,35.94
2018-07-19T09:32:09.333Z,37.44
2018-07-19T09:35:12.829Z,36.84
2018-07-19T09:37:42.325Z,36.67
2018-07-19T09:40:16.191Z,36.14
2018-07-19T09:42:52.068Z,37.23
2018-07-19T09:45:27.840Z,38.37
2018-07-19T09:48:05.785Z,36.68
2018-07-19T09:50:36.183Z,38.58
2018-07-19T09:53:05.637Z,37.43
2018-07-19T09:55:36.721Z,37.70
2018-07-19T09:58:06.017Z,35.50
2018-07-19T10:00:42.426Z,34.05
2018-07-19T10:03:11.774Z,33.83
2018-07-19T10:05:41.115Z,35.19
2018-07-19T10:08:10.401Z,36.35
2018-07-19T10:10:40.085Z,36.40
2018-07-19T10:13:10.328Z,35.61
2018-07-19T10:15:39.660Z,37.19
2018-07-19T10:18:08.866Z,37.86
2018-07-19T10:20:38.200Z,39.08
2018-07-19T10:23:07.552Z,38.91
2018-07-19T10:25:37.936Z,38.78
2018-07-19T10:28:07.201Z,38.46
2018-07-19T10:30:36.604Z,36.50
2018-07-19T10:33:07.792Z,36.90
2018-07-19T10:35:37.247Z,37.61
2018-07-19T10:38:10.241Z,36.39
2018-07-19T10:40:41.258Z,34.77
2018-07-19T10:43:11.531Z,33.20
2018-07-19T10:45:45.819Z,33.71
2018-07-19T10:48:15.919Z,32.47
2018-07-19T10:50:54.250Z,31.87
2018-07-19T10:53:23.718Z,32.87
2018-07-19T10:55:53.040Z,35.24
2018-07-19T10:58:27.331Z,35.80
2018-07-19T11:00:57.280Z,36.93
2018-07-19T11:03:26.528Z,37.39
2018-07-19T11:06:00.216Z,38.70
2018-07-19T11:08:35.554Z,38.18
2018-07-19T11:11:10.872Z,37.10
2018-07-19T11:13:40.113Z,37.98
2018-07-19T11:16:26.311Z,36.61
2018-07-19T11:19:03.074Z,37.64
2018-07-19T11:21:33.782Z,36.02
2018-07-19T11:24:07.879Z,36.58
2018-07-19T11:26:37.429Z,35.13
2018-07-19T11:29:28.585Z,34.68
2018-07-19T11:32:00.134Z,34.67
2018-07-19T11:34:36.605Z,33.09
2018-07-19T11:37:21.836Z,33.53
2018-07-19T11:39:54.439Z,32.81
2018-07-19T11:42:25.189Z,32.60
2018-07-19T11:45:12.329Z,33.15
2018-07-19T11:47:55.177Z,33.12
2018-07-19T11:50:26.019Z,32.34
2018-07-19T11:52:58.022Z,32.71
2018-07-19T11:55:37.967Z,32.29
2018-07-19T11:58:10.756Z,32.57
2018-07-19T12:00:41.527Z,32.35
2018-07-19T12:03:10.991Z,30.35
2018-07-19T12:08:35.613Z,31.88
2018-07-19T12:11:10.728Z,32.42
2018-07-19T12:13:41.737Z,31.22
2018-07-19T12:18:50.067Z,32.52
2018-07-19T12:21:19.497Z,32.78
2018-07-19T12:23:48.757Z,32.85
2018-07-19T12:26:18.084Z,32.43
2018-07-19T12:28:47.423Z,32.50
2018-07-19T12:31:16.784Z,32.77
2018-07-19T12:33:46.087Z,32.22
2018-07-19T12:36:15.337Z,31.65
2018-07-19T12:38:44.629Z,31.04
2018-07-19T12:41:13.932Z,31.13
2018-07-19T12:43:43.185Z,32.15
2018-07-19T12:46:13.454Z,32.39
2018-07-19T12:48:43.502Z,31.97
2018-07-19T12:51:12.803Z,32.06
2018-07-19T12:53:42.377Z,32.69
2018-07-19T12:56:11.656Z,32.81
2018-07-19T12:58:41.365Z,32.19
2018-07-19T13:01:10.627Z,32.57
2018-07-19T13:03:39.898Z,31.25
2018-07-19T13:06:09.352Z,31.64
2018-07-19T13:08:38.592Z,31.83
2018-07-19T13:11:07.853Z,30.96
2018-07-19T13:13:37.118Z,31.61
2018-07-19T13:16:06.479Z,31.43
2018-07-19T13:18:47.204Z,31.81
2018-07-19T13:21:16.697Z,30.86
2018-07-19T13:23:46.853Z,31.37
2018-07-19T13:26:16.097Z,31.45
2018-07-19T13:28:45.446Z,31.44
2018-07-19T13:31:14.967Z,31.56
2018-07-19T13:33:44.318Z,31.07
2018-07-19T13:36:13.644Z,30.98
2018-07-19T13:38:54.412Z,30.26
2018-07-19T13:41:26.816Z,31.56
2018-07-19T13:43:56.991Z,31.43
2018-07-19T13:46:26.450Z,31.62
2018-07-19T13:48:55.854Z,31.21
2018-07-19T13:51:25.065Z,30.77
2018-07-19T13:54:16.645Z,31.21
2018-07-19T13:56:50.375Z,30.98
2018-07-19T13:59:19.642Z,30.58
2018-07-19T14:01:49.044Z,31.03
2018-07-19T14:04:18.306Z,30.21
2018-07-19T14:06:48.631Z,30.38
2018-07-19T14:09:17.924Z,30.95
2018-07-19T14:11:47.244Z,30.97
2018-07-19T14:14:26.965Z,30.02
2018-07-19T14:16:56.501Z,30.45
2018-07-19T14:19:26.844Z,30.27
2018-07-19T14:21:56.279Z,29.89
2018-07-19T14:24:28.092Z,30.41
2018-07-19T14:27:08.132Z,29.98
2018-07-19T14:29:37.328Z,30.38
2018-07-19T14:32:06.596Z,30.28
2018-07-19T14:34:35.762Z,30.53
2018-07-19T14:37:05.147Z,30.72
2018-07-19T14:39:35.300Z,30.95
2018-07-19T14:42:15.005Z,31.22
2018-07-19T14:44:53.853Z,31.24
2018-07-19T14:47:24.396Z,31.33
2018-07-19T14:49:54.759Z,30.62
2018-07-19T14:52:23.978Z,30.56
2018-07-19T14:54:53.400Z,30.47
2018-07-19T14:57:22.778Z,30.42
2018-07-19T14:59:52.014Z,31.60
2018-07-19T15:02:21.234Z,30.87
2018-07-19T15:04:50.409Z,30.64
2018-07-19T15:07:19.666Z,31.04
2018-07-19T15:09:48.902Z,30.67
2018-07-19T15:12:18.187Z,30.95
2018-07-19T15:14:47.548Z,31.09
2018-07-19T15:17:16.853Z,30.72
2018-07-19T15:19:46.250Z,30.83
2018-07-19T15:22:15.821Z,30.92
2018-07-19T15:24:45.172Z,30.65
2018-07-19T15:27:14.559Z,30.87
2018-07-19T15:29:43.858Z,30.24
2018-07-19T15:32:13.134Z,31.12
2018-07-19T15:34:42.499Z,30.91
2018-07-19T15:37:11.909Z,30.79
2018-07-19T15:39:41.199Z,30.62
2018-07-19T15:42:10.515Z,30.73
2018-07-19T15:44:39.835Z,30.68
2018-07-19T15:47:09.112Z,30.44
2018-07-19T15:49:38.482Z,30.13
2018-07-19T15:52:07.788Z,30.42
2018-07-19T15:54:37.057Z,30.03
2018-07-19T15:57:06.563Z,30.73
2018-07-19T15:59:35.865Z,30.45
2018-07-19T16:02:05.250Z,30.45
2018-07-19T16:04:34.525Z,30.64
2018-07-19T16:07:03.804Z,30.42
2018-07-19T16:09:33.193Z,30.75
2018-07-19T16:12:02.576Z,30.36
2018-07-19T16:14:31.807Z,30.68
2018-07-19T16:17:01.117Z,30.39
2018-07-19T16:19:30.366Z,30.60
2018-07-19T16:21:59.642Z,30.18
2018-07-19T16:24:28.877Z,30.18
2018-07-19T16:26:58.242Z,30.21
2018-07-19T16:29:27.549Z,30.65
2018-07-19T16:31:56.796Z,30.53
2018-07-19T16:34:26.068Z,29.59
2018-07-19T16:36:55.338Z,29.83
2018-07-19T16:39:24.489Z,29.20
2018-07-19T16:41:53.665Z,29.57
2018-07-19T16:44:22.885Z,29.14
2018-07-19T16:46:52.080Z,29.27
2018-07-19T16:49:21.312Z,29.18
2018-07-19T16:51:50.528Z,29.41
2018-07-19T16:54:19.762Z,29.20
2018-07-19T16:56:49.071Z,29.22
2018-07-19T16:59:18.256Z,29.38
2018-07-19T17:01:47.532Z,29.35
2018-07-19T17:04:16.728Z,29.34
2018-07-19T17:06:45.935Z,29.51
2018-07-19T17:09:15.158Z,30.19
2018-07-19T17:11:44.492Z,29.91
2018-07-19T17:14:13.689Z,29.78
2018-07-19T17:16:42.900Z,29.84
2018-07-19T17:19:12.078Z,29.46
2018-07-19T17:21:41.358Z,29.52
2018-07-19T17:24:10.559Z,28.58
2018-07-19T17:26:39.734Z,28.86
2018-07-19T17:29:08.945Z,29.27
2018-07-19T17:31:38.228Z,28.55
2018-07-19T17:34:07.412Z,28.42
2018-07-19T17:36:36.689Z,28.63
2018-07-19T17:39:08.808Z,28.42
2018-07-19T17:41:38.086Z,28.60
2018-07-19T17:44:07.340Z,28.62
2018-07-19T17:46:36.661Z,28.50
2018-07-19T17:49:06.209Z,28.43
2018-07-19T17:51:35.594Z,28.84
2018-07-19T17:54:04.897Z,28.97
2018-07-19T17:56:34.162Z,28.61
2018-07-19T17:59:03.518Z,28.62
2018-07-19T18:01:32.970Z,28.78
2018-07-19T18:04:02.469Z,28.79
2018-07-19T18:06:31.730Z,28.65
2018-07-19T18:09:01.952Z,28.38
2018-07-19T18:11:33.442Z,28.45
2018-07-19T18:14:02.889Z,28.65
2018-07-19T18:16:33.227Z,27.76
2018-07-19T18:19:02.544Z,28.63
2018-07-19T18:21:31.913Z,28.28
2018-07-19T18:24:01.171Z,28.18
2018-07-19T18:26:30.436Z,28.13
2018-07-19T18:28:59.677Z,27.67
2018-07-19T18:31:29.097Z,27.54
2018-07-19T18:33:58.303Z,27.81
2018-07-19T18:36:27.536Z,27.34
2018-07-19T18:38:57.724Z,27.49
2018-07-19T18:41:26.938Z,27.38
2018-07-19T18:43:56.222Z,27.40
2018-07-19T18:46:25.580Z,27.23
2018-07-19T18:48:54.809Z,26.78
2018-07-19T18:51:24.064Z,26.79
2018-07-19T18:53:53.266Z,26.60
2018-07-19T18:56:22.495Z,26.62
2018-07-19T18:58:51.684Z,25.98
2018-07-19T19:01:20.930Z,26.26
2018-07-19T19:03:50.529Z,26.29
2018-07-19T19:06:19.810Z,25.76
2018-07-19T19:08:49.068Z,25.96
2018-07-19T19:11:18.334Z,25.54
2018-07-19T19:13:47.550Z,25.10
2018-07-19T19:16:16.784Z,25.04
2018-07-19T19:18:47.083Z,24.84
2018-07-19T19:21:16.343Z,24.79
2018-07-19T19:23:45.666Z,24.58
2018-07-19T19:26:14.884Z,24.44
2018-07-19T19:28:44.112Z,24.63
2018-07-19T19:31:13.373Z,24.44
2018-07-19T19:33:42.579Z,24.29
2018-07-19T19:36:11.828Z,24.11
2018-07-19T19:38:41.070Z,23.38
2018-07-19T19:41:10.321Z,23.57
2018-07-19T19:43:39.495Z,23.57
2018-07-19T19:46:08.712Z,23.36
2018-07-19T19:48:37.991Z,23.68
2018-07-19T19:51:07.902Z,23.73
2018-07-19T19:53:37.126Z,23.47
2018-07-19T19:56:06.373Z,23.05
2018-07-19T19:58:35.561Z,23.26
2018-07-19T20:01:04.774Z,23.19
2018-07-19T20:03:35.031Z,23.06
2018-07-19T20:06:04.214Z,22.90
2018-07-19T20:08:33.380Z,22.83
2018-07-19T20:11:02.598Z,22.68
2018-07-19T20:13:31.812Z,22.58
2018-07-19T20:16:01.015Z,22.60
2018-07-19T20:18:30.285Z,22.33
2018-07-19T20:20:59.488Z,22.12
2018-07-19T20:23:28.979Z,22.18
2018-07-19T20:25:58.151Z,21.92
2018-07-19T20:28:27.313Z,22.03
2018-07-19T20:30:56.478Z,22.13
2018-07-19T20:33:25.679Z,21.97
2018-07-19T20:35:54.901Z,21.98
2018-07-19T20:38:24.181Z,21.73
2018-07-19T20:40:53.396Z,21.74
2018-07-19T20:43:22.627Z,21.61
2018-07-19T20:45:51.818Z,21.83
2018-07-19T20:48:21.044Z,21.68
2018-07-19T20:50:50.383Z,21.74
2018-07-19T20:53:19.553Z,21.70
2018-07-19T20:55:48.720Z,21.60
2018-07-19T20:58:17.895Z,21.50
2018-07-19T21:00:47.098Z,21.67
2018-07-19T21:03:16.300Z,21.36
2018-07-19T21:05:45.479Z,21.24
2018-07-19T21:08:14.738Z,21.17
2018-07-19T21:10:43.886Z,20.95
2018-07-19T21:13:13.060Z,21.20
2018-07-19T21:15:42.222Z,21.20
2018-07-19T21:18:11.483Z,21.04
2018-07-19T21:20:40.634Z,20.61
2018-07-19T21:23:09.821Z,21.22
2018-07-19T21:25:39.065Z,21.02
2018-07-19T21:28:08.241Z,21.22
2018-07-19T21:30:37.501Z,20.57
2018-07-19T21:33:06.683Z,20.46
2018-07-19T21:35:35.857Z,20.68
2018-07-19T21:38:05.061Z,20.84
2018-07-19T21:40:34.229Z,20.84
2018-07-19T21:43:04.664Z,20.66
2018-07-19T21:45:33.981Z,20.49
2018-07-19T21:48:03.168Z,20.24
2018-07-19T21:50:32.614Z,20.16
2018-07-19T21:53:01.784Z,20.31
2018-07-19T21:55:31.024Z,20.27
2018-07-19T21:58:00.188Z,20.16
2018-07-19T22:00:30.708Z,20.35
2018-07-19T22:03:01.589Z,20.36
2018-07-19T22:05:30.849Z,20.01
2018-07-19T22:08:00.037Z,20.21
2018-07-19T22:10:29.456Z,20.15
2018-07-19T22:12:58.675Z,20.04
2018-07-19T22:15:27.913Z,19.86
2018-07-19T22:17:57.091Z,19.61
2018-07-19T22:20:26.311Z,19.67
2018-07-19T22:22:55.476Z,19.70
2018-07-19T22:25:24.674Z,19.63
2018-07-19T22:27:53.913Z,19.54
2018-07-19T22:30:23.135Z,19.32
2018-07-19T22:32:52.292Z,19.13
2018-07-19T22:35:21.574Z,19.64
2018-07-19T22:37:50.726Z,19.78
2018-07-19T22:40:19.985Z,19.24
2018-07-19T22:42:49.281Z,19.20
2018-07-19T22:45:18.781Z,19.32
2018-07-19T22:47:48.020Z,19.44
2018-07-19T22:50:17.334Z,19.23
2018-07-19T22:52:46.544Z,19.16
2018-07-19T22:55:15.758Z,19.19
2018-07-19T22:57:44.933Z,18.89
2018-07-19T23:00:14.274Z,19.03
2018-07-19T23:02:43.520Z,19.28
2018-07-19T23:05:12.755Z,18.97
2018-07-19T23:07:41.978Z,19.17
2018-07-19T23:10:11.172Z,19.29
2018-07-19T23:12:40.377Z,19.02
2018-07-19T23:15:09.620Z,19.06
2018-07-19T23:17:38.837Z,18.83
2018-07-19T23:20:08.012Z,19.07
2018-07-19T23:22:37.308Z,19.08
2018-07-19T23:25:06.581Z,18.82
2018-07-19T23:27:36.115Z,18.55
2018-07-19T23:30:05.350Z,18.49
2018-07-19T23:32:35.560Z,18.62
2018-07-19T23:35:04.784Z,18.72
2018-07-19T23:37:36.572Z,18.93
2018-07-19T23:40:40.025Z,19.04
2018-07-19T23:43:13.430Z,19.04
2018-07-19T23:46:17.155Z,18.74
2018-07-19T23:48:46.520Z,18.64
2018-07-19T23:51:15.868Z,18.48
2018-07-19T23:53:45.120Z,18.41
2018-07-19T23:56:14.360Z,18.65
2018-07-19T23:58:43.614Z,18.63
